Sudbury Airport
CYSB : now visible

Airfield :











YOU CAN JOIN US ON...

 
LOGIN :

Register | Disclaimer

   EN    FR    IT 

 









Legend :    VFR   Marginal VFR   IFR   Intensive IFR   Very Intensive IFR
Visi :
Ceiling :
>= 8 km
>= 3000ft
5 to 8 km
1000 to 3000 ft
1500m to 5 km
500 to 1000 ft
800 to 1500m
200 to 500 ft
< 800m
< 200 ft
Symbols :   Thunderstorms  Fog  Heavy snow  Heavy precipitations  Wind > 20 kt






- Airport Elevation : 1141 ft
- IATA code : YSB


CYSB - Sudbury

CURRENT METAR :
  • 291300Z 03008KT 20SM FEW015 FEW220 14/11 A3015 RMK CF1CI1 SLP217

EXPIRED METARs :
  • 291200Z 01009KT 20SM SCT008 BKN220 13/13 A3013 RMK CF4CI2 SLP210
  • 291100Z 36005KT 20SM FEW005 FEW020 SCT080 12/12 A3012 RMK SF1SC1AC2 SLP207

TAF TAF CYSB
Valid from the 29 at 08:00 until the 29 at 20:00 UTC


290740Z 2908/2920 28005KT P6SM SCT005 OVC060
TEMPO 2908/2912 BKN005 OVC015
PROB30 2908/2912 1SM BR BKN003
FM291200 33005KT P6SM SCT040 RMK NXT FCST BY 291400Z
CZYZ FIR / North America



MET'MAP, your aeronautical weather chart ! - Copyright ORBIFLY December 2007 - Disclaimer

ORBIFLY MET'MAP TEAM :

Programming & Development : Alexandra Zaïnal
Original concept : Baudouin d'Aumeries
Technical & hardware support : Manuel Goepfert
Assistance : Marc-Olivier Méhu




SOURCES & CREDITS :

   NOAA       Earth
Advisory